Time;durP1;ratioP1;P1;durP2;ratioP2;P2;SDS_P1;SDS_P2;PMS_P1;PMS_P2;Temp;Humidity;BMP_temperature;BMP_pressure;BME280_temperature;BME280_humidity;BME280_pressure;Samples;Min_cycle;Max_cycle;Signal;HPM_P1;HPM_P2
2022/11/21 00:01:21;;;;;;;1.90;1.80;;;;;;;13.88;100.00;95505.66;5004697;28;20562;-46
2022/11/21 00:03:49;;;;;;;1.70;1.60;;;;;;;13.79;100.00;95512.06;5002805;28;20573;-45
2022/11/21 00:06:19;;;;;;;1.80;1.70;;;;;;;13.56;100.00;95501.66;5004177;28;20062;-45
2022/11/21 00:08:48;;;;;;;1.70;1.60;;;;;;;13.57;100.00;95510.41;5001804;28;20457;-42
2022/11/21 00:11:16;;;;;;;1.60;1.50;;;;;;;13.18;100.00;95477.97;5001316;28;20065;-41
2022/11/21 00:13:45;;;;;;;1.80;1.70;;;;;;;13.65;100.00;95502.34;5004229;28;20078;-43
2022/11/21 00:16:15;;;;;;;1.70;1.60;;;;;;;13.88;100.00;95510.16;5001649;28;20472;-43
2022/11/21 00:18:44;;;;;;;2.00;1.90;;;;;;;13.53;100.00;95505.50;5003861;28;20085;-43
2022/11/21 00:21:14;;;;;;;1.70;1.60;;;;;;;13.74;100.00;95510.00;5003710;28;20167;-43
2022/11/21 00:23:43;;;;;;;1.83;1.73;;;;;;;13.74;100.00;95506.53;5004152;28;20086;-47
2022/11/21 00:26:13;;;;;;;1.80;1.70;;;;;;;13.62;100.00;95516.78;5004744;28;20081;-42
2022/11/21 00:28:41;;;;;;;1.77;1.67;;;;;;;13.65;100.00;95513.75;4999247;28;20073;-47
2022/11/21 00:31:10;;;;;;;1.80;1.70;;;;;;;13.20;100.00;95505.06;5008226;28;20086;-47
2022/11/21 00:33:38;;;;;;;1.70;1.60;;;;;;;13.50;100.00;95508.50;5006258;28;20088;-42
2022/11/21 00:36:07;;;;;;;4.55;1.95;;;;;;;13.72;100.00;95492.66;5008793;28;20093;-44
2022/11/21 00:38:36;;;;;;;1.80;1.70;;;;;;;14.62;94.40;95492.03;5004385;28;20088;-43
2022/11/21 00:41:06;;;;;;;1.80;1.70;;;;;;;14.16;100.00;95486.34;5007590;28;20092;-46
2022/11/21 00:43:34;;;;;;;1.80;1.70;;;;;;;13.75;100.00;95492.28;5003902;28;20078;-45
2022/11/21 00:46:03;;;;;;;1.83;1.73;;;;;;;13.76;97.79;95489.44;5008899;28;20092;-44
2022/11/21 00:48:32;;;;;;;1.67;1.58;;;;;;;13.65;100.00;95489.91;5002641;28;20116;-45
2022/11/21 00:51:00;;;;;;;2.38;1.75;;;;;;;14.01;98.98;95492.53;5005505;28;20584;-42
2022/11/21 00:53:29;;;;;;;2.03;1.88;;;;;;;13.98;98.25;95484.16;5006020;28;20081;-42
2022/11/21 00:55:57;;;;;;;2.88;1.70;;;;;;;13.43;100.00;95478.47;5005243;28;20085;-43
2022/11/21 00:58:27;;;;;;;1.80;1.70;;;;;;;14.08;96.75;95483.84;5004640;28;20069;-47
2022/11/21 01:01:03;;;;;;;2.00;1.90;;;;;;;13.78;98.24;95483.94;5002968;28;20081;-45
2022/11/21 01:03:33;;;;;;;1.83;1.73;;;;;;;13.67;100.00;95465.91;5004261;28;20080;-42
2022/11/21 01:06:03;;;;;;;2.00;1.90;;;;;;;14.37;94.51;95488.97;5002447;28;20505;-43
2022/11/21 01:08:31;;;;;;;1.92;1.70;;;;;;;14.06;97.16;95483.19;5004232;28;20050;-42
2022/11/21 01:11:03;;;;;;;1.83;1.73;;;;;;;14.14;95.95;95485.69;5002871;28;20085;-45
2022/11/21 01:13:33;;;;;;;1.80;1.70;;;;;;;14.03;99.72;95479.09;5007932;28;20081;-45
2022/11/21 01:16:05;;;;;;;1.80;1.70;;;;;;;13.97;93.10;95487.78;5005686;28;20080;-42
2022/11/21 01:18:33;;;;;;;1.70;1.60;;;;;;;14.27;93.97;95482.34;5005001;28;20092;-45
2022/11/21 01:21:02;;;;;;;1.80;1.70;;;;;;;14.27;95.11;95485.00;5007510;28;20078;-43
2022/11/21 01:23:30;;;;;;;1.80;1.70;;;;;;;13.76;100.00;95485.94;5001831;28;20089;-43
2022/11/21 01:26:02;;;;;;;1.70;1.60;;;;;;;13.41;100.00;95482.31;5006118;28;20081;-43
2022/11/21 01:28:30;;;;;;;1.77;1.67;;;;;;;13.82;100.00;95476.44;5005262;28;20081;-42
2022/11/21 01:31:05;;;;;;;1.80;1.70;;;;;;;13.91;95.33;95485.91;5003403;28;20086;-45
2022/11/21 01:33:33;;;;;;;1.80;1.70;;;;;;;14.05;95.82;95489.50;5003273;28;20085;-50
2022/11/21 01:36:13;;;;;;;1.58;1.50;;;;;;;13.88;99.96;95481.00;5006932;28;20077;-43
2022/11/21 01:38:43;;;;;;;1.98;1.70;;;;;;;13.47;100.00;95474.44;5001660;28;20078;-45
2022/11/21 01:41:13;;;;;;;1.70;1.60;;;;;;;13.86;100.00;95475.88;5004101;28;20086;-45
2022/11/21 01:43:41;;;;;;;4.43;1.83;;;;;;;14.06;99.82;95476.06;5004253;28;20086;-47
2022/11/21 01:46:14;;;;;;;1.80;1.70;;;;;;;14.14;98.08;95464.50;5002649;28;20081;-47
2022/11/21 01:48:47;;;;;;;1.80;1.70;;;;;;;13.96;100.00;95470.25;5005343;28;20085;-44
2022/11/21 01:51:19;;;;;;;1.70;1.60;;;;;;;13.87;100.00;95480.19;5004509;28;20512;-42
2022/11/21 01:53:53;;;;;;;1.90;1.80;;;;;;;13.89;99.89;95462.25;5006106;28;20085;-46
2022/11/21 01:56:22;;;;;;;1.80;1.70;;;;;;;13.93;100.00;95476.75;5001941;28;20066;-47
2022/11/21 01:58:52;;;;;;;1.98;1.73;;;;;;;13.89;97.77;95467.53;5004411;28;21915;-48
2022/11/21 02:01:22;;;;;;;2.40;1.90;;;;;;;14.20;94.14;95467.19;4999545;28;20077;-44
2022/11/21 02:03:51;;;;;;;2.00;1.90;;;;;;;13.91;98.56;95470.03;5005450;28;20081;-43
2022/11/21 02:06:19;;;;;;;1.80;1.70;;;;;;;13.98;97.73;95458.47;5002811;28;20073;-50
2022/11/21 02:08:48;;;;;;;1.90;1.80;;;;;;;14.41;90.27;95455.72;5001327;28;20094;-47
2022/11/21 02:11:22;;;;;;;2.08;1.88;;;;;;;14.57;89.17;95451.19;5004687;28;20472;-48
2022/11/21 02:13:50;;;;;;;2.10;2.00;;;;;;;14.53;89.35;95448.09;5003324;28;20086;-44
2022/11/21 02:16:18;;;;;;;2.20;2.00;;;;;;;14.27;92.27;95450.53;5006563;28;20073;-51
2022/11/21 02:18:48;;;;;;;1.90;1.80;;;;;;;13.70;100.00;95450.47;5001523;28;20096;-45
2022/11/21 02:21:21;;;;;;;2.10;2.00;;;;;;;14.12;96.47;95434.72;5007106;28;20621;-41
2022/11/21 02:23:55;;;;;;;2.00;1.90;;;;;;;14.65;92.31;95435.94;5004163;28;20050;-44
2022/11/21 02:26:29;;;;;;;1.90;1.80;;;;;;;14.42;92.87;95435.38;5002643;28;20477;-44
2022/11/21 02:28:58;;;;;;;2.83;1.88;;;;;;;14.55;89.05;95427.50;5002798;28;20458;-46
2022/11/21 02:31:26;;;;;;;2.00;1.90;;;;;;;15.29;82.50;95428.69;5001487;28;20089;-46
2022/11/21 02:33:54;;;;;;;1.90;1.80;;;;;;;15.05;83.18;95422.88;5006406;28;20088;-45
2022/11/21 02:36:46;;;;;;;2.20;2.00;;;;;;;14.89;80.63;95421.34;5005498;28;20077;-45
2022/11/21 02:39:19;;;;;;;2.65;2.10;;;;;;;15.03;79.01;95421.44;4989754;28;20515;-43
2022/11/21 02:41:57;;;;;;;1.80;1.70;;;;;;;15.53;73.70;95430.81;5004333;28;20092;-46
2022/11/21 02:44:30;;;;;;;1.70;1.60;;;;;;;14.72;83.24;95420.84;5001585;28;20081;-46
2022/11/21 02:46:58;;;;;;;2.00;1.90;;;;;;;15.43;74.46;95422.38;5002979;28;20091;-47
2022/11/21 02:49:31;;;;;;;2.05;1.95;;;;;;;14.32;84.55;95424.28;5005421;28;20073;-48
2022/11/21 02:52:00;;;;;;;2.58;2.10;;;;;;;15.50;74.70;95419.75;5000553;28;20108;-50
2022/11/21 02:54:28;;;;;;;2.20;1.80;;;;;;;15.85;69.88;95412.47;4999869;28;20680;-43
2022/11/21 02:56:58;;;;;;;2.22;2.00;;;;;;;14.87;76.80;95417.28;5004705;28;20501;-46
2022/11/21 02:59:26;;;;;;;1.73;1.63;;;;;;;14.55;80.44;95424.03;4997763;28;20081;-42
2022/11/21 03:01:58;;;;;;;2.10;1.90;;;;;;;14.80;79.52;95403.97;5003677;28;20089;-44
2022/11/21 03:04:27;;;;;;;2.25;1.85;;;;;;;14.79;77.35;95409.47;5002803;28;20101;-43
2022/11/21 03:06:56;;;;;;;1.80;1.70;;;;;;;13.71;84.12;95406.22;5003056;28;20081;-51
2022/11/21 03:09:24;;;;;;;2.28;2.08;;;;;;;14.56;81.67;95399.16;4999275;28;21062;-44
2022/11/21 03:11:53;;;;;;;3.10;2.10;;;;;;;14.04;82.30;95395.91;5005753;28;20586;-42
2022/11/21 03:14:22;;;;;;;2.53;2.00;;;;;;;14.72;81.92;95386.38;5005797;28;20078;-43
2022/11/21 03:16:50;;;;;;;1.80;1.70;;;;;;;14.19;83.40;95395.81;5005161;28;20078;-47
2022/11/21 03:19:19;;;;;;;2.05;1.88;;;;;;;14.51;82.55;95385.66;5000076;28;20081;-46
2022/11/21 03:21:47;;;;;;;1.98;1.73;;;;;;;13.98;86.09;95391.38;5002726;28;20485;-49
2022/11/21 03:24:15;;;;;;;3.90;2.22;;;;;;;14.00;90.78;95386.69;5002195;28;20089;-44
2022/11/21 03:26:43;;;;;;;1.80;1.70;;;;;;;13.73;89.10;95378.53;5003274;28;20528;-42
2022/11/21 03:29:12;;;;;;;2.00;1.90;;;;;;;14.45;80.25;95373.94;4997707;28;20081;-47
2022/11/21 03:31:41;;;;;;;2.70;1.95;;;;;;;14.00;91.24;95368.13;5001443;28;20085;-44
2022/11/21 03:34:10;;;;;;;2.10;1.90;;;;;;;13.85;89.36;95362.13;5001113;28;20115;-43
2022/11/21 03:36:38;;;;;;;2.10;1.90;;;;;;;14.15;84.43;95360.91;4999349;28;20077;-47
2022/11/21 03:39:08;;;;;;;1.80;1.70;;;;;;;14.54;78.12;95354.25;4997267;28;20555;-42
2022/11/21 03:41:36;;;;;;;3.38;1.80;;;;;;;14.28;78.95;95368.16;4999342;28;20477;-45
2022/11/21 03:44:07;;;;;;;2.17;2.03;;;;;;;14.55;78.57;95355.06;5001440;28;20529;-41
2022/11/21 03:46:36;;;;;;;4.72;2.05;;;;;;;14.34;76.92;95348.78;4999308;28;20784;-42
2022/11/21 03:49:07;;;;;;;5.20;2.20;;;;;;;14.60;73.96;95352.66;5002036;28;20082;-42
2022/11/21 03:51:36;;;;;;;4.55;2.20;;;;;;;14.28;78.97;95365.50;5000914;28;20089;-45
2022/11/21 03:54:04;;;;;;;1.88;1.77;;;;;;;14.74;74.88;95351.69;5003210;28;20085;-44
2022/11/21 03:56:33;;;;;;;2.67;1.95;;;;;;;14.54;72.38;95358.72;5003853;28;20100;-43
2022/11/21 03:59:01;;;;;;;2.20;2.00;;;;;;;14.74;72.13;95357.00;5006410;28;20082;-44
2022/11/21 04:01:30;;;;;;;2.20;1.83;;;;;;;14.67;68.84;95362.28;5005248;28;20092;-44
2022/11/21 04:04:05;;;;;;;3.35;2.05;;;;;;;14.75;70.22;95365.78;5001755;28;20482;-45
2022/11/21 04:06:34;;;;;;;2.85;2.00;;;;;;;15.05;68.05;95361.00;5009962;28;20089;-43
2022/11/21 04:09:02;;;;;;;2.20;2.00;;;;;;;14.32;74.31;95365.94;5007575;28;20559;-42
2022/11/21 04:11:30;;;;;;;2.90;1.90;;;;;;;15.09;69.05;95348.94;5007927;28;20568;-43
2022/11/21 04:13:58;;;;;;;2.00;1.80;;;;;;;15.36;67.43;95358.63;5002703;28;20085;-42
2022/11/21 04:16:26;;;;;;;2.85;1.90;;;;;;;14.80;69.95;95361.53;5006661;28;20085;-43
2022/11/21 04:18:55;;;;;;;2.60;1.95;;;;;;;14.63;71.62;95349.59;5008851;28;20090;-42
2022/11/21 04:21:24;;;;;;;1.90;1.80;;;;;;;14.56;74.23;95364.66;5005430;28;20549;-45
2022/11/21 04:23:53;;;;;;;2.43;1.80;;;;;;;14.67;74.09;95358.81;5040652;28;20471;-44
2022/11/21 04:26:21;;;;;;;1.92;1.70;;;;;;;15.04;70.74;95354.06;5005887;28;20082;-42
2022/11/21 04:28:49;;;;;;;1.83;1.67;;;;;;;14.53;73.29;95357.09;5001243;28;20069;-44
2022/11/21 04:31:18;;;;;;;2.83;2.03;;;;;;;15.23;71.05;95353.28;5006516;28;20484;-49
2022/11/21 04:33:46;;;;;;;2.72;1.73;;;;;;;14.98;67.84;95350.34;5009784;28;20096;-47
2022/11/21 04:36:14;;;;;;;4.38;1.80;;;;;;;15.63;65.23;95342.72;5004415;28;20548;-47
2022/11/21 04:38:44;;;;;;;2.60;1.60;;;;;;;15.73;63.00;95347.69;5004887;28;20070;-45
2022/11/21 04:41:12;;;;;;;2.93;1.77;;;;;;;15.85;60.79;95349.50;5003091;28;20066;-42
2022/11/21 04:43:40;;;;;;;2.75;1.80;;;;;;;16.14;60.08;95339.47;5004393;28;21653;-46
2022/11/21 04:46:08;;;;;;;3.78;1.80;;;;;;;16.10;62.70;95333.75;5005901;28;20081;-44
2022/11/21 04:48:37;;;;;;;1.77;1.63;;;;;;;14.65;68.37;95332.44;5003408;28;20070;-48
2022/11/21 04:51:05;;;;;;;3.17;1.90;;;;;;;15.31;70.19;95342.47;5001203;28;20653;-48
2022/11/21 04:53:33;;;;;;;1.90;1.80;;;;;;;14.75;75.18;95331.28;5001259;28;20078;-48
2022/11/21 04:56:15;;;;;;;1.95;1.75;;;;;;;14.99;70.42;95337.88;5005174;28;20089;-44
2022/11/21 04:58:44;;;;;;;1.85;1.48;;;;;;;14.74;76.25;95329.63;5001699;28;20621;-42
2022/11/21 05:01:12;;;;;;;1.85;1.75;;;;;;;15.44;70.55;95331.84;5003737;28;20089;-43
2022/11/21 05:03:40;;;;;;;1.92;1.60;;;;;;;14.69;77.10;95340.81;5005586;28;20084;-48
2022/11/21 05:06:09;;;;;;;2.70;1.60;;;;;;;13.96;96.24;95354.44;5005418;28;20082;-41
2022/11/21 05:08:37;;;;;;;3.33;1.50;;;;;;;14.07;97.09;95342.50;5004463;28;20104;-46
2022/11/21 05:13:54;;;;;;;1.70;1.60;;;;;;;13.56;100.00;95342.72;5006413;28;20082;-46
2022/11/21 05:16:22;;;;;;;;;;;;;;;13.96;100.00;95343.84;5006607;28;20074;-42
2022/11/21 05:18:50;;;;;;;1.73;1.50;;;;;;;13.79;100.00;95331.91;5004536;28;19999;-46
2022/11/21 05:21:18;;;;;;;1.75;1.65;;;;;;;14.33;98.44;95325.94;5004690;28;20100;-46
2022/11/21 05:23:46;;;;;;;6.57;1.67;;;;;;;14.63;92.45;95307.16;5002579;28;20149;-45
2022/11/21 05:26:14;;;;;;;2.55;1.67;;;;;;;14.30;96.61;95330.81;5007883;28;20088;-48
2022/11/21 05:28:43;;;;;;;2.40;1.70;;;;;;;14.04;100.00;95342.91;5002516;28;20081;-51
2022/11/21 05:31:12;;;;;;;2.80;1.80;;;;;;;15.33;83.91;95313.88;5006122;28;20093;-47
2022/11/21 05:33:41;;;;;;;2.15;1.95;;;;;;;15.16;83.94;95313.41;5005565;28;20088;-43
2022/11/21 05:36:09;;;;;;;3.65;1.90;;;;;;;15.00;86.41;95320.94;5003885;28;20617;-46
2022/11/21 05:38:37;;;;;;;2.15;1.92;;;;;;;15.14;79.75;95310.16;5006217;28;20080;-44
2022/11/21 05:41:05;;;;;;;3.45;1.80;;;;;;;15.33;77.60;95313.88;5005154;28;20088;-49
2022/11/21 05:43:46;;;;;;;2.25;1.60;;;;;;;14.98;78.48;95309.72;5003971;28;20104;-46
2022/11/21 05:46:17;;;;;;;2.17;1.67;;;;;;;14.94;87.26;95319.91;5005162;28;20475;-47
2022/11/21 05:48:45;;;;;;;1.83;1.73;;;;;;;14.96;85.03;95328.47;5005289;28;20073;-43
2022/11/21 05:51:14;;;;;;;2.17;1.85;;;;;;;14.57;93.74;95326.50;5006299;28;20104;-45
2022/11/21 05:53:43;;;;;;;1.80;1.50;;;;;;;14.38;96.45;95326.19;5002323;28;20077;-45
2022/11/21 05:56:13;;;;;;;2.35;1.67;;;;;;;14.47;99.82;95337.44;5004235;28;20088;-48
2022/11/21 05:58:42;;;;;;;2.00;1.80;;;;;;;14.87;94.67;95335.00;5006114;28;20466;-44
2022/11/21 06:01:13;;;;;;;4.53;1.70;;;;;;;15.10;86.19;95318.72;5001941;28;20075;-43
2022/11/21 06:03:42;;;;;;;1.80;1.60;;;;;;;14.68;94.53;95325.94;5003225;28;20578;-45
2022/11/21 06:06:11;;;;;;;2.83;1.75;;;;;;;15.33;90.27;95327.16;5000573;28;20081;-43
2022/11/21 06:08:41;;;;;;;2.65;1.90;;;;;;;15.26;87.00;95320.19;5001321;28;20085;-46
2022/11/21 06:11:11;;;;;;;2.50;1.80;;;;;;;15.68;79.82;95324.34;5001798;28;20449;-46
2022/11/21 06:13:39;;;;;;;1.80;1.70;;;;;;;14.80;92.79;95331.50;5003174;28;20074;-46
2022/11/21 06:16:09;;;;;;;3.05;2.15;;;;;;;15.61;81.89;95320.84;5001156;28;20078;-46
2022/11/21 06:18:39;;;;;;;2.08;1.60;;;;;;;15.16;79.24;95317.91;5005081;28;20092;-50
2022/11/21 06:21:10;;;;;;;2.58;2.05;;;;;;;15.35;84.25;95325.13;4999651;28;20081;-44
2022/11/21 06:23:38;;;;;;;2.03;1.80;;;;;;;14.54;88.69;95325.06;4998036;28;20090;-49
2022/11/21 06:26:08;;;;;;;2.03;1.65;;;;;;;14.11;96.95;95335.81;5001717;28;20076;-47
2022/11/21 06:28:38;;;;;;;2.15;1.70;;;;;;;14.56;93.36;95319.56;5004725;28;20089;-45
2022/11/21 06:31:08;;;;;;;2.20;2.00;;;;;;;14.90;84.09;95324.81;4999926;28;20583;-47
2022/11/21 06:33:36;;;;;;;1.80;1.70;;;;;;;15.16;84.47;95333.84;5003784;28;20472;-47
2022/11/21 06:36:06;;;;;;;1.98;1.70;;;;;;;15.38;80.39;95339.81;5001454;28;20480;-46
2022/11/21 06:38:36;;;;;;;1.90;1.80;;;;;;;14.76;87.84;95332.91;5003566;28;20092;-46
2022/11/21 06:41:05;;;;;;;1.85;1.75;;;;;;;15.32;83.03;95330.84;5003727;28;20477;-43
2022/11/21 06:43:34;;;;;;;2.85;1.90;;;;;;;15.61;80.37;95342.09;5004542;28;20085;-50
2022/11/21 06:46:03;;;;;;;1.85;1.70;;;;;;;15.34;79.63;95350.03;5004096;28;20073;-46
2022/11/21 06:48:31;;;;;;;2.75;1.83;;;;;;;14.77;90.29;95339.88;5004877;28;20073;-44
2022/11/21 06:51:04;;;;;;;2.30;2.00;;;;;;;15.17;85.02;95348.75;5001314;28;20096;-51
2022/11/21 06:53:32;;;;;;;3.40;1.95;;;;;;;14.89;84.32;95352.34;5003242;28;20081;-47
2022/11/21 06:56:03;;;;;;;2.10;2.00;;;;;;;14.99;86.17;95354.63;5002490;28;20089;-42
2022/11/21 06:58:31;;;;;;;1.90;1.80;;;;;;;14.87;88.61;95353.59;5002239;28;20085;-43
2022/11/21 07:01:04;;;;;;;3.92;2.50;;;;;;;14.51;94.44;95356.47;5002301;28;20073;-48
2022/11/21 07:03:32;;;;;;;2.10;1.90;;;;;;;14.95;88.82;95356.88;4997894;28;20088;-44
2022/11/21 07:06:01;;;;;;;3.42;3.00;;;;;;;14.29;99.76;95359.16;5002861;28;20081;-47
2022/11/21 07:08:31;;;;;;;4.07;2.47;;;;;;;14.59;97.49;95349.19;5002590;28;20092;-43
2022/11/21 07:11:03;;;;;;;2.47;1.95;;;;;;;14.99;87.69;95364.44;5004317;28;20088;-47
2022/11/21 07:13:51;;;;;;;3.15;1.98;;;;;;;15.24;85.36;95359.41;5004669;28;20058;-46
2022/11/21 07:16:20;;;;;;;1.92;1.60;;;;;;;14.39;94.13;95358.81;5003410;28;20073;-43
2022/11/21 07:18:48;;;;;;;5.63;2.47;;;;;;;15.14;90.32;95355.31;5001326;28;20084;-46
2022/11/21 07:21:16;;;;;;;3.00;1.88;;;;;;;15.11;85.79;95354.88;5001750;28;20129;-43
2022/11/21 07:23:45;;;;;;;2.20;1.98;;;;;;;14.71;94.62;95363.50;5003990;28;20069;-46
2022/11/21 07:26:15;;;;;;;2.15;1.77;;;;;;;14.60;96.54;95369.38;5014656;28;20525;-44
2022/11/21 07:28:43;;;;;;;1.90;1.80;;;;;;;14.68;96.69;95376.34;5003164;28;20069;-45
2022/11/21 07:31:11;;;;;;;3.17;2.00;;;;;;;14.12;100.00;95371.91;4995289;28;20523;-42
2022/11/21 07:33:43;;;;;;;2.55;1.88;;;;;;;14.99;93.63;95367.91;5005127;28;20571;-43
2022/11/21 07:36:11;;;;;;;2.10;1.90;;;;;;;14.67;96.83;95372.06;4999927;28;20088;-43
2022/11/21 07:38:40;;;;;;;1.80;1.70;;;;;;;14.61;93.49;95371.00;5000113;28;20464;-45
2022/11/21 07:41:09;;;;;;;2.20;1.80;;;;;;;14.89;92.33;95372.75;5004756;28;20057;-46
2022/11/21 07:43:39;;;;;;;1.85;1.75;;;;;;;15.28;89.32;95364.13;5003768;28;20531;-44
2022/11/21 07:46:07;;;;;;;2.20;2.00;;;;;;;14.88;84.94;95374.59;5001804;28;20084;-48
2022/11/21 07:48:36;;;;;;;3.15;1.88;;;;;;;15.33;87.68;95374.97;5002461;28;20065;-43
2022/11/21 07:51:05;;;;;;;2.88;1.63;;;;;;;15.45;84.47;95375.19;4998377;28;20082;-44
2022/11/21 07:53:33;;;;;;;1.83;1.73;;;;;;;15.00;88.75;95374.03;5000986;28;20077;-51
2022/11/21 07:56:02;;;;;;;2.72;1.80;;;;;;;15.54;82.18;95370.50;5000432;28;20426;-47
2022/11/21 07:58:30;;;;;;;1.77;1.52;;;;;;;14.70;95.78;95384.94;5000280;28;20082;-47
2022/11/21 08:01:03;;;;;;;1.70;1.60;;;;;;;15.03;89.60;95389.56;5004464;28;20527;-43
2022/11/21 08:03:31;;;;;;;1.77;1.67;;;;;;;14.68;95.68;95382.47;5001259;28;20081;-46
2022/11/21 08:06:01;;;;;;;1.65;1.55;;;;;;;14.67;92.56;95372.88;5002806;28;20872;-48
2022/11/21 08:08:30;;;;;;;1.60;1.50;;;;;;;14.89;92.95;95384.19;4998289;28;20103;-42
2022/11/21 08:10:58;;;;;;;1.40;1.40;;;;;;;14.97;91.02;95380.56;5004944;28;20473;-48
2022/11/21 08:13:29;;;;;;;3.25;1.70;;;;;;;15.50;81.09;95382.56;4998983;28;20547;-43
2022/11/21 08:15:57;;;;;;;1.63;1.52;;;;;;;15.06;86.10;95382.03;5002320;28;20080;-44
2022/11/21 08:18:26;;;;;;;2.45;1.45;;;;;;;14.40;89.46;95369.22;5002060;28;20532;-42
2022/11/21 08:20:55;;;;;;;1.58;1.48;;;;;;;14.78;89.85;95374.16;5000458;28;20147;-49
2022/11/21 08:23:23;;;;;;;3.40;1.60;;;;;;;14.74;89.72;95375.56;5002102;28;20077;-47
2022/11/21 08:25:51;;;;;;;1.75;1.65;;;;;;;14.41;91.55;95375.34;5000108;28;20128;-47
2022/11/21 08:28:20;;;;;;;1.55;1.45;;;;;;;15.04;88.00;95384.06;5004334;28;20085;-45
2022/11/21 08:30:48;;;;;;;1.83;1.60;;;;;;;14.35;88.75;95384.91;4996909;28;20073;-44
2022/11/21 08:33:16;;;;;;;4.88;1.50;;;;;;;15.13;85.61;95376.72;5003056;28;20080;-42
2022/11/21 08:35:46;;;;;;;1.30;1.30;;;;;;;14.83;87.51;95387.66;5000085;28;20085;-44
2022/11/21 08:38:14;;;;;;;1.47;1.40;;;;;;;14.70;88.66;95390.25;5004893;28;20073;-47
2022/11/21 08:40:43;;;;;;;1.30;1.30;;;;;;;15.41;79.06;95382.72;4995958;28;20164;-50
2022/11/21 08:43:11;;;;;;;1.30;1.30;;;;;;;16.49;68.84;95379.94;5003882;28;20057;-44
2022/11/21 08:45:39;;;;;;;1.23;1.20;;;;;;;15.73;76.50;95388.34;5002207;28;20116;-46
2022/11/21 08:48:10;;;;;;;1.55;1.45;;;;;;;15.47;76.12;95393.59;5004157;28;20072;-43
2022/11/21 08:50:38;;;;;;;;;;;;;;;15.58;76.63;95400.97;4999899;28;20053;-43
2022/11/21 08:53:08;;;;;;;1.60;1.30;;;;;;;15.42;75.10;95400.31;5000513;28;20432;-50
2022/11/21 08:55:36;;;;;;;2.88;1.38;;;;;;;15.75;72.98;95404.91;5007261;28;20454;-44
2022/11/21 08:58:04;;;;;;;1.67;1.30;;;;;;;15.86;73.66;95403.47;5003282;28;20093;-44
2022/11/21 09:00:32;;;;;;;2.03;1.30;;;;;;;16.11;69.13;95409.03;5006291;28;20082;-47
2022/11/21 09:03:04;;;;;;;2.53;1.60;;;;;;;15.23;78.82;95410.88;5006468;28;20492;-47
2022/11/21 09:05:33;;;;;;;1.20;1.20;;;;;;;15.04;80.40;95409.81;5007448;28;20089;-45
2022/11/21 09:08:01;;;;;;;1.42;1.33;;;;;;;15.42;77.73;95408.28;5007809;28;20100;-43
2022/11/21 09:10:31;;;;;;;1.33;1.15;;;;;;;16.01;72.26;95412.09;5006027;28;20085;-50
2022/11/21 09:13:01;;;;;;;1.50;1.40;;;;;;;15.06;78.99;95416.53;5002012;28;20081;-50
2022/11/21 09:18:15;;;;;;;1.50;1.40;;;;;;;15.42;72.90;95402.16;5004793;28;19987;-43
2022/11/21 09:20:44;;;;;;;1.52;1.40;;;;;;;15.07;77.12;95412.03;5000752;28;20116;-42
2022/11/21 09:23:14;;;;;;;1.85;1.40;;;;;;;14.85;76.89;95412.16;5004107;28;20524;-45
2022/11/21 09:25:44;;;;;;;1.85;1.27;;;;;;;15.00;77.42;95412.00;5003141;28;20085;-43
2022/11/21 09:28:14;;;;;;;1.30;1.20;;;;;;;15.48;74.08;95404.00;5005669;28;20085;-48
2022/11/21 09:30:43;;;;;;;1.40;1.30;;;;;;;15.29;80.15;95410.91;5006841;28;20085;-48
2022/11/21 09:33:13;;;;;;;2.13;1.40;;;;;;;15.30;76.88;95407.22;5004428;28;20096;-50
2022/11/21 09:35:41;;;;;;;1.80;1.48;;;;;;;15.72;77.39;95409.81;5005619;28;20080;-48
2022/11/21 09:38:10;;;;;;;3.85;1.30;;;;;;;15.05;75.62;95406.13;5007174;28;20080;-46
2022/11/21 09:40:43;;;;;;;3.55;1.60;;;;;;;15.53;74.42;95400.75;5006093;28;20088;-43
2022/11/21 09:43:26;;;;;;;1.30;1.20;;;;;;;14.91;73.70;95406.06;5000142;28;20093;-43
2022/11/21 09:45:58;;;;;;;4.35;1.52;;;;;;;15.54;70.21;95395.22;5002216;28;20089;-44
2022/11/21 09:48:31;;;;;;;1.40;1.30;;;;;;;15.30;73.96;95403.75;5001408;28;20457;-50
2022/11/21 09:51:02;;;;;;;1.50;1.40;;;;;;;14.81;83.16;95410.91;5005647;28;20070;-43
2022/11/21 09:53:33;;;;;;;1.65;1.50;;;;;;;15.52;85.58;95407.91;5002987;28;20449;-44
2022/11/21 09:56:05;;;;;;;1.50;1.40;;;;;;;15.97;74.37;95397.56;5005385;28;20089;-43
2022/11/21 09:58:38;;;;;;;1.77;1.40;;;;;;;15.70;75.87;95390.59;5006941;28;20092;-42
2022/11/21 10:01:10;;;;;;;1.50;1.40;;;;;;;15.85;74.11;95388.56;5002565;28;20089;-46
2022/11/21 10:03:41;;;;;;;3.10;1.55;;;;;;;16.76;69.58;95374.56;5006936;28;20085;-46
2022/11/21 10:06:18;;;;;;;3.25;1.38;;;;;;;16.40;68.79;95380.34;5002892;28;20085;-44
2022/11/21 10:08:54;;;;;;;1.60;1.50;;;;;;;15.30;76.96;95375.34;5004408;28;20089;-44
2022/11/21 10:11:33;;;;;;;3.75;1.45;;;;;;;16.64;76.40;95365.56;5005953;28;20526;-46
2022/11/21 10:14:12;;;;;;;1.40;1.35;;;;;;;16.23;69.68;95362.16;5003193;28;20097;-46
2022/11/21 10:16:44;;;;;;;2.22;1.67;;;;;;;15.99;67.60;95360.94;5002444;28;20108;-46
2022/11/21 10:19:30;;;;;;;5.60;1.55;;;;;;;16.23;68.04;95351.50;5004328;28;20081;-45
2022/11/21 10:22:23;;;;;;;1.38;1.23;;;;;;;16.37;66.87;95346.97;5005433;28;20097;-43
2022/11/21 10:24:56;;;;;;;1.92;1.30;;;;;;;16.95;65.83;95348.88;5001987;28;20547;-45
2022/11/21 10:27:31;;;;;;;2.00;1.00;;;;;;;16.02;64.38;95360.53;5005515;28;20080;-45
2022/11/21 10:30:04;;;;;;;1.83;1.20;;;;;;;16.45;65.00;95324.66;5002000;28;20077;-43
2022/11/21 10:32:37;;;;;;;1.23;1.13;;;;;;;16.55;63.87;95344.50;5004093;28;20069;-43
2022/11/21 10:35:13;;;;;;;2.78;1.20;;;;;;;16.74;65.61;95341.97;5006694;28;20491;-43
2022/11/21 10:37:46;;;;;;;1.30;1.02;;;;;;;17.01;60.50;95340.06;5002070;28;20096;-43
2022/11/21 10:40:22;;;;;;;2.92;1.15;;;;;;;16.50;63.26;95343.47;5000147;28;21956;-44
2022/11/21 10:42:54;;;;;;;1.30;1.20;;;;;;;16.74;69.42;95334.84;5001513;28;21391;-46
2022/11/21 10:45:23;;;;;;;1.17;1.00;;;;;;;16.91;61.40;95340.50;5006098;28;20073;-43
2022/11/21 10:47:52;;;;;;;3.30;1.35;;;;;;;17.98;60.50;95336.16;4997909;28;20085;-45
2022/11/21 10:50:35;;;;;;;2.85;1.10;;;;;;;18.12;52.89;95331.53;5004569;28;20069;-43
2022/11/21 10:55:59;;;;;;;2.35;1.00;;;;;;;17.12;52.91;95331.38;5004593;28;20086;-46
2022/11/21 10:58:36;;;;;;;1.40;1.10;;;;;;;17.11;54.75;95324.44;5004239;28;20180;-46
2022/11/21 11:01:06;;;;;;;2.10;1.10;;;;;;;17.64;52.68;95329.41;5004727;28;20065;-43
2022/11/21 11:03:35;;;;;;;1.45;1.00;;;;;;;17.33;51.68;95332.91;5003792;28;20080;-48
2022/11/21 11:06:03;;;;;;;1.55;0.90;;;;;;;17.68;55.38;95314.63;5005935;28;20531;-42
2022/11/21 11:08:49;;;;;;;2.65;1.20;;;;;;;17.69;54.69;95316.28;5003906;28;20095;-43
2022/11/21 11:11:21;;;;;;;1.17;1.05;;;;;;;17.62;55.68;95312.84;5016985;28;20070;-45
2022/11/21 11:13:56;;;;;;;1.77;0.93;;;;;;;16.69;54.31;95313.34;5000395;28;20108;-46
2022/11/21 11:16:27;;;;;;;2.55;1.10;;;;;;;16.75;55.08;95307.19;5005519;28;20070;-47
2022/11/21 11:18:58;;;;;;;2.58;1.15;;;;;;;16.64;54.45;95301.69;4999560;28;20077;-42
2022/11/21 11:21:28;;;;;;;0.95;0.88;;;;;;;15.93;54.46;95300.59;4999796;28;20062;-44
2022/11/21 11:24:08;;;;;;;2.17;1.10;;;;;;;16.59;58.42;95289.00;5000645;28;20074;-44
2022/11/21 11:26:52;;;;;;;1.85;1.10;;;;;;;16.09;57.30;95289.53;5002716;28;20085;-43
2022/11/21 11:29:22;;;;;;;2.28;1.40;;;;;;;16.38;57.39;95282.94;5003052;28;20454;-43
2022/11/21 11:31:55;;;;;;;3.53;1.30;;;;;;;16.59;55.56;95275.69;5003713;28;20077;-43
2022/11/21 11:34:27;;;;;;;2.55;1.55;;;;;;;16.68;54.44;95277.06;5002386;28;20100;-44
2022/11/21 11:37:04;;;;;;;2.45;1.10;;;;;;;17.05;55.14;95272.81;5002580;28;20088;-42
2022/11/21 11:39:52;;;;;;;2.22;1.13;;;;;;;16.44;52.37;95270.63;4997427;28;20523;-51
2022/11/21 11:48:39;;;;;;;1.63;1.10;;;;;;;16.85;50.36;95261.47;5000592;28;20078;-45
2022/11/21 11:51:30;;;;;;;1.13;1.02;;;;;;;17.37;51.90;95253.34;4994798;28;20508;-41
2022/11/21 11:54:03;;;;;;;2.75;0.90;;;;;;;17.48;49.54;95250.81;5005765;28;20058;-43
2022/11/21 11:56:33;;;;;;;2.42;1.23;;;;;;;17.07;53.64;95261.97;5003723;28;20428;-47
2022/11/21 11:59:04;;;;;;;2.38;0.93;;;;;;;16.46;49.79;95254.47;5000063;28;20078;-52
2022/11/21 12:01:37;;;;;;;1.40;0.93;;;;;;;16.47;50.78;95256.09;5000666;28;20080;-50
2022/11/21 12:04:11;;;;;;;3.42;0.90;;;;;;;16.55;49.00;95234.53;5001679;28;20081;-46